Time;durP1;ratioP1;P1;durP2;ratioP2;P2;SDS_P1;SDS_P2;PMS_P1;PMS_P2;Temp;Humidity;BMP_temperature;BMP_pressure;BME280_temperature;BME280_humidity;BME280_pressure;Samples;Min_cycle;Max_cycle;Signal;HPM_P1;HPM_P2
2021/08/26 00:00:17;;;;;;;;;;;;;;;;;;2075760;28;1411;-82
2021/08/26 00:05:43;;;;;;;;;;;;;;;;;;2070828;28;1922;-83
2021/08/26 00:06:37;;;;;;;;;;;;;;;;;;2074418;28;1797;-83
2021/08/26 00:07:38;;;;;;;;;;;;;;;;;;2067445;28;1562;-83
2021/08/26 00:08:40;;;;;;;;;;;;;;;;;;2067297;28;1367;-82
2021/08/26 00:09:40;;;;;;;;;;;;;;;;;;2075072;28;1661;-83
2021/08/26 00:10:42;;;;;;;;;;;;;;;;;;2081000;28;1281;-82
2021/08/26 00:11:44;;;;;;;;;;;;;;;;;;2068721;28;1202;-83
2021/08/26 00:12:47;;;;;;;;;;;;;;;;;;2075538;28;1350;-83
2021/08/26 00:13:50;;;;;;;;;;;;;;;;;;2075229;28;1411;-83
2021/08/26 00:14:51;;;;;;;;;;;;;;;;;;2075477;28;1291;-82
2021/08/26 00:15:55;;;;;;;;;;;;;;;;;;2074647;28;1211;-83
2021/08/26 00:16:57;;;;;;;;;;;;;;;;;;2070393;28;2102;-83
2021/08/26 00:17:58;;;;;;;;;;;;;;;;;;2059051;28;1305;-83
2021/08/26 00:19:00;;;;;;;;;;;;;;;;;;2051088;28;1473;-82
2021/08/26 00:20:01;;;;;;;;;;;;;;;;;;2059356;28;1293;-83
2021/08/26 00:21:03;;;;;;;;;;;;;;;;;;2066877;28;1671;-83
2021/08/26 00:22:03;;;;;;;;;;;;;;;;;;2071126;28;2073;-83
2021/08/26 00:23:06;;;;;;;;;;;;;;;;;;2075331;28;1185;-82
2021/08/26 00:24:07;;;;;;;;;;;;;;;;;;2075637;28;1547;-84
2021/08/26 00:25:09;;;;;;;;;;;;;;;;;;2075362;28;1268;-84
2021/08/26 00:26:12;;;;;;;;;;;;;;;;;;2074725;28;1363;-84
2021/08/26 00:27:13;;;;;;;;;;;;;;;;;;2066676;28;1230;-83
2021/08/26 00:28:16;;;;;;;;;;;;;;;;;;2050652;29;1696;-83
2021/08/26 00:29:17;;;;;;;;;;;;;;;;;;2067124;28;1213;-83
2021/08/26 00:30:20;;;;;;;;;;;;;;;;;;2059044;28;1418;-83
2021/08/26 00:31:20;;;;;;;;;;;;;;;;;;2075348;28;1437;-83
2021/08/26 00:32:22;;;;;;;;;;;;;;;;;;2075003;28;1236;-83
2021/08/26 00:33:23;;;;;;;;;;;;;;;;;;2066434;28;1378;-81
2021/08/26 00:34:25;;;;;;;;;;;;;;;;;;2066753;28;1311;-81
2021/08/26 00:35:25;;;;;;;;;;;;;;;;;;2066928;28;1413;-82
2021/08/26 00:36:27;;;;;;;;;;;;;;;;;;2068945;28;1889;-81
2021/08/26 00:37:28;;;;;;;;;;;;;;;;;;2066588;28;1976;-82
2021/08/26 00:38:31;;;;;;;;;;;;;;;;;;2074834;28;1724;-82
2021/08/26 00:39:32;;;;;;;;;;;;;;;;;;2074066;28;1453;-82
2021/08/26 00:40:34;;;;;;;;;;;;;;;;;;2083113;28;1693;-82
2021/08/26 00:41:36;;;;;;;;;;;;;;;;;;2073963;28;1910;-82
2021/08/26 00:42:38;;;;;;;;;;;;;;;;;;2066976;28;1300;-82
2021/08/26 00:43:40;;;;;;;;;;;;;;;;;;2075123;28;929;-82
2021/08/26 00:44:42;;;;;;;;;;;;;;;;;;2074862;28;1232;-82
2021/08/26 00:45:44;;;;;;;;;;;;;;;;;;2066848;28;1395;-81
2021/08/26 00:46:47;;;;;;;;;;;;;;;;;;2076139;28;1224;-81
2021/08/26 00:47:48;;;;;;;;;;;;;;;;;;2066918;28;1307;-82
2021/08/26 00:48:50;;;;;;;;;;;;;;;;;;2067009;28;1406;-83
2021/08/26 00:49:51;;;;;;;;;;;;;;;;;;2075220;28;1221;-83
2021/08/26 00:50:53;;;;;;;;;;;;;;;;;;2074931;28;1232;-83
2021/08/26 00:51:54;;;;;;;;;;;;;;;;;;2065722;28;2080;-83
2021/08/26 00:52:56;;;;;;;;;;;;;;;;;;2058714;28;1217;-84
2021/08/26 00:53:56;;;;;;;;;;;;;;;;;;2066293;28;1234;-83
2021/08/26 00:54:58;;;;;;;;;;;;;;;;;;2066984;28;1513;-83
2021/08/26 00:55:59;;;;;;;;;;;;;;;;;;2065146;28;1334;-83
2021/08/26 00:57:01;;;;;;;;;;;;;;;;;;2062363;28;1462;-83
2021/08/26 00:58:02;;;;;;;;;;;;;;;;;;2067004;28;1364;-83
2021/08/26 00:59:06;;;;;;;;;;;;;;;;;;2074988;28;1248;-83
2021/08/26 01:00:09;;;;;;;;;;;;;;;;;;2074736;28;1323;-83
2021/08/26 01:01:12;;;;;;;;;;;;;;;;;;2058723;28;2041;-83
2021/08/26 01:02:16;;;;;;;;;;;;;;;;;;2077646;28;1983;-83
2021/08/26 01:03:26;;;;;;;;;;;;;;;;;;2083010;28;1236;-83
2021/08/26 01:04:31;;;;;;;;;;;;;;;;;;2076070;28;1375;-84
2021/08/26 01:05:37;;;;;;;;;;;;;;;;;;2083407;28;1350;-82
2021/08/26 01:06:42;;;;;;;;;;;;;;;;;;2075002;28;2131;-82
2021/08/26 01:07:47;;;;;;;;;;;;;;;;;;2075225;28;1223;-82
2021/08/26 01:08:50;;;;;;;;;;;;;;;;;;2074933;28;1285;-82
2021/08/26 01:09:57;;;;;;;;;;;;;;;;;;2075152;28;1277;-82
2021/08/26 01:10:59;;;;;;;;;;;;;;;;;;2075766;28;1339;-84
2021/08/26 01:12:02;;;;;;;;;;;;;;;;;;2073782;28;1252;-83
2021/08/26 01:13:04;;;;;;;;;;;;;;;;;;2075109;28;1216;-83
2021/08/26 01:14:10;;;;;;;;;;;;;;;;;;2074349;28;1344;-83
2021/08/26 01:15:11;;;;;;;;;;;;;;;;;;2075369;28;1278;-83
2021/08/26 01:16:14;;;;;;;;;;;;;;;;;;2074545;28;1248;-83
2021/08/26 01:17:18;;;;;;;;;;;;;;;;;;2066502;28;2162;-83
2021/08/26 01:18:20;;;;;;;;;;;;;;;;;;2067422;28;1246;-83
2021/08/26 01:19:20;;;;;;;;;;;;;;;;;;2074659;28;1239;-83
2021/08/26 01:20:22;;;;;;;;;;;;;;;;;;2074608;28;1543;-83
2021/08/26 01:21:24;;;;;;;;;;;;;;;;;;2074382;28;2020;-83
2021/08/26 01:22:27;;;;;;;;;;;;;;;;;;2074391;28;1922;-83
2021/08/26 01:23:30;;;;;;;;;;;;;;;;;;2058729;28;1468;-83
2021/08/26 01:24:34;;;;;;;;;;;;;;;;;;2059278;28;1485;-83
2021/08/26 01:25:41;;;;;;;;;;;;;;;;;;2066474;28;1731;-83
2021/08/26 01:26:45;;;;;;;;;;;;;;;;;;2066480;28;1241;-84
2021/08/26 01:27:48;;;;;;;;;;;;;;;;;;2059350;28;1267;-84
2021/08/26 01:28:51;;;;;;;;;;;;;;;;;;2059119;28;1375;-84
2021/08/26 01:29:52;;;;;;;;;;;;;;;;;;2066828;28;1403;-84
2021/08/26 01:30:54;;;;;;;;;;;;;;;;;;2067056;28;1349;-83
2021/08/26 01:31:55;;;;;;;;;;;;;;;;;;2074362;28;1272;-84
2021/08/26 01:32:59;;;;;;;;;;;;;;;;;;2075125;28;1429;-84
2021/08/26 01:34:00;;;;;;;;;;;;;;;;;;2075277;28;1232;-84
2021/08/26 01:35:03;;;;;;;;;;;;;;;;;;2083409;28;1251;-84
2021/08/26 01:36:04;;;;;;;;;;;;;;;;;;2083101;28;772;-84
2021/08/26 01:37:06;;;;;;;;;;;;;;;;;;2077989;28;1391;-84
2021/08/26 01:38:07;;;;;;;;;;;;;;;;;;2074433;28;1267;-84
2021/08/26 01:39:09;;;;;;;;;;;;;;;;;;2066635;28;1397;-84
2021/08/26 01:40:10;;;;;;;;;;;;;;;;;;2067031;28;1176;-84
2021/08/26 01:41:14;;;;;;;;;;;;;;;;;;2066673;28;2164;-84
2021/08/26 01:42:15;;;;;;;;;;;;;;;;;;2066830;28;1914;-85
2021/08/26 01:43:18;;;;;;;;;;;;;;;;;;2066427;28;1212;-84
2021/08/26 01:44:20;;;;;;;;;;;;;;;;;;2059044;28;1268;-83
2021/08/26 01:45:22;;;;;;;;;;;;;;;;;;2058844;28;1339;-84
2021/08/26 01:46:23;;;;;;;;;;;;;;;;;;2058871;28;1332;-84
2021/08/26 01:47:25;;;;;;;;;;;;;;;;;;2073819;28;2019;-84
2021/08/26 01:48:25;;;;;;;;;;;;;;;;;;2066677;28;1280;-84
2021/08/26 01:49:27;;;;;;;;;;;;;;;;;;2058613;28;1237;-84
2021/08/26 01:50:28;;;;;;;;;;;;;;;;;;2058394;28;1317;-84
2021/08/26 01:51:30;;;;;;;;;;;;;;;;;;2066702;28;1266;-84
2021/08/26 01:52:32;;;;;;;;;;;;;;;;;;2058126;28;1443;-84
2021/08/26 01:53:33;;;;;;;;;;;;;;;;;;2058717;28;1302;-84
2021/08/26 01:54:35;;;;;;;;;;;;;;;;;;2058780;28;1276;-84
2021/08/26 01:55:36;;;;;;;;;;;;;;;;;;2058254;28;1216;-84
2021/08/26 01:56:39;;;;;;;;;;;;;;;;;;2064499;28;1233;-84
2021/08/26 01:57:40;;;;;;;;;;;;;;;;;;2058794;28;1350;-84
2021/08/26 01:58:41;;;;;;;;;;;;;;;;;;2066565;28;1225;-84
2021/08/26 01:59:42;;;;;;;;;;;;;;;;;;2074725;28;1216;-84
2021/08/26 02:00:46;;;;;;;;;;;;;;;;;;2066999;28;995;-84
2021/08/26 02:01:46;;;;;;;;;;;;;;;;;;2076574;28;1985;-84
2021/08/26 02:02:49;;;;;;;;;;;;;;;;;;2074896;28;1287;-84
2021/08/26 02:03:49;;;;;;;;;;;;;;;;;;2082654;28;1299;-84
2021/08/26 02:04:51;;;;;;;;;;;;;;;;;;2075224;28;1228;-84
2021/08/26 02:05:52;;;;;;;;;;;;;;;;;;2082674;28;1183;-84
2021/08/26 02:06:54;;;;;;;;;;;;;;;;;;2082255;28;1326;-83
2021/08/26 02:07:54;;;;;;;;;;;;;;;;;;2073991;28;1274;-82
2021/08/26 02:08:56;;;;;;;;;;;;;;;;;;2082917;28;1240;-83
2021/08/26 02:09:57;;;;;;;;;;;;;;;;;;2074076;28;1216;-82
2021/08/26 02:10:59;;;;;;;;;;;;;;;;;;2065306;28;2037;-82
2021/08/26 02:12:01;;;;;;;;;;;;;;;;;;2062349;28;1864;-82
2021/08/26 02:13:03;;;;;;;;;;;;;;;;;;2067024;28;1641;-82
2021/08/26 02:14:04;;;;;;;;;;;;;;;;;;2066458;28;1208;-82
2021/08/26 02:15:07;;;;;;;;;;;;;;;;;;2058196;28;1678;-82
2021/08/26 02:16:07;;;;;;;;;;;;;;;;;;2061128;28;1929;-82
2021/08/26 02:17:09;;;;;;;;;;;;;;;;;;2066020;28;1385;-82
2021/08/26 02:18:10;;;;;;;;;;;;;;;;;;2074706;28;919;-82
2021/08/26 02:19:12;;;;;;;;;;;;;;;;;;2073999;28;1368;-82
2021/08/26 02:20:13;;;;;;;;;;;;;;;;;;2065928;28;1564;-82
2021/08/26 02:21:15;;;;;;;;;;;;;;;;;;2065787;28;1891;-82
2021/08/26 02:22:15;;;;;;;;;;;;;;;;;;2074254;28;1982;-82
2021/08/26 02:23:17;;;;;;;;;;;;;;;;;;2074360;28;1779;-82
2021/08/26 02:24:19;;;;;;;;;;;;;;;;;;2066009;28;1614;-81
2021/08/26 02:25:20;;;;;;;;;;;;;;;;;;2066171;28;1708;-82
2021/08/26 02:26:22;;;;;;;;;;;;;;;;;;2065089;28;2014;-82
2021/08/26 02:27:24;;;;;;;;;;;;;;;;;;2072770;28;1558;-82
2021/08/26 02:28:26;;;;;;;;;;;;;;;;;;2074627;28;1097;-82
2021/08/26 02:29:26;;;;;;;;;;;;;;;;;;2082531;28;1185;-83
2021/08/26 02:30:28;;;;;;;;;;;;;;;;;;2082864;28;1326;-82
2021/08/26 02:31:29;;;;;;;;;;;;;;;;;;2076586;28;2059;-82
2021/08/26 02:32:31;;;;;;;;;;;;;;;;;;2074232;28;1522;-82
2021/08/26 02:33:33;;;;;;;;;;;;;;;;;;2074758;28;1327;-83
2021/08/26 02:34:35;;;;;;;;;;;;;;;;;;2074568;28;1296;-82
2021/08/26 02:35:36;;;;;;;;;;;;;;;;;;2066102;28;1327;-83
2021/08/26 02:36:37;;;;;;;;;;;;;;;;;;2073149;28;1318;-83
2021/08/26 02:37:38;;;;;;;;;;;;;;;;;;2074128;28;1179;-83
2021/08/26 02:38:40;;;;;;;;;;;;;;;;;;2074621;28;1259;-83
2021/08/26 02:39:41;;;;;;;;;;;;;;;;;;2066536;28;1247;-83
2021/08/26 02:40:43;;;;;;;;;;;;;;;;;;2066788;28;1585;-83
2021/08/26 02:41:43;;;;;;;;;;;;;;;;;;2073761;28;1291;-82
2021/08/26 02:42:47;;;;;;;;;;;;;;;;;;2074254;28;1973;-82
2021/08/26 02:43:47;;;;;;;;;;;;;;;;;;2058403;28;1234;-82
2021/08/26 02:44:49;;;;;;;;;;;;;;;;;;2058189;28;1302;-83
2021/08/26 02:45:50;;;;;;;;;;;;;;;;;;2065780;28;1850;-82
2021/08/26 02:46:52;;;;;;;;;;;;;;;;;;2065648;28;2086;-82
2021/08/26 02:47:53;;;;;;;;;;;;;;;;;;2066259;28;1352;-83
2021/08/26 02:48:55;;;;;;;;;;;;;;;;;;2074572;28;1642;-82
2021/08/26 02:49:55;;;;;;;;;;;;;;;;;;2082660;28;1330;-83
2021/08/26 02:50:57;;;;;;;;;;;;;;;;;;2074671;28;2119;-83
2021/08/26 02:51:58;;;;;;;;;;;;;;;;;;2067528;28;1251;-83
2021/08/26 02:53:00;;;;;;;;;;;;;;;;;;2084074;28;1485;-83
2021/08/26 02:54:00;;;;;;;;;;;;;;;;;;2084096;28;859;-83
2021/08/26 02:55:02;;;;;;;;;;;;;;;;;;2075764;28;1321;-83
2021/08/26 02:56:03;;;;;;;;;;;;;;;;;;2069295;28;1320;-83
2021/08/26 02:57:05;;;;;;;;;;;;;;;;;;2068305;28;2102;-84
2021/08/26 02:58:07;;;;;;;;;;;;;;;;;;2068071;28;1277;-82
2021/08/26 02:59:09;;;;;;;;;;;;;;;;;;2067668;28;1289;-83
2021/08/26 03:00:10;;;;;;;;;;;;;;;;;;2067691;28;1366;-83
2021/08/26 03:01:12;;;;;;;;;;;;;;;;;;2067841;28;1251;-83
2021/08/26 03:02:13;;;;;;;;;;;;;;;;;;2067791;28;1969;-83
2021/08/26 03:03:15;;;;;;;;;;;;;;;;;;2067638;28;1312;-82
2021/08/26 03:04:15;;;;;;;;;;;;;;;;;;2067519;28;1311;-82
2021/08/26 03:05:17;;;;;;;;;;;;;;;;;;2075850;28;806;-83
2021/08/26 03:06:18;;;;;;;;;;;;;;;;;;2067524;28;1230;-83
2021/08/26 03:07:20;;;;;;;;;;;;;;;;;;2065364;28;1893;-83
2021/08/26 03:08:22;;;;;;;;;;;;;;;;;;2068256;28;1366;-83
2021/08/26 03:09:23;;;;;;;;;;;;;;;;;;2075437;28;1573;-83
2021/08/26 03:10:24;;;;;;;;;;;;;;;;;;2075525;28;1422;-83
2021/08/26 03:11:26;;;;;;;;;;;;;;;;;;2075485;28;1232;-83
2021/08/26 03:12:28;;;;;;;;;;;;;;;;;;2067307;28;1345;-82
2021/08/26 03:13:31;;;;;;;;;;;;;;;;;;2067161;28;1237;-82
2021/08/26 03:14:32;;;;;;;;;;;;;;;;;;2075292;28;1249;-83
2021/08/26 03:15:34;;;;;;;;;;;;;;;;;;2075530;28;1566;-83
2021/08/26 03:16:35;;;;;;;;;;;;;;;;;;2067566;28;2048;-83
2021/08/26 03:17:37;;;;;;;;;;;;;;;;;;2067420;28;1506;-82
2021/08/26 03:18:37;;;;;;;;;;;;;;;;;;2067350;28;1198;-82
2021/08/26 03:19:39;;;;;;;;;;;;;;;;;;2075166;28;1234;-83
2021/08/26 03:20:40;;;;;;;;;;;;;;;;;;2075991;28;1251;-82
2021/08/26 03:21:42;;;;;;;;;;;;;;;;;;2075589;28;1272;-83
2021/08/26 03:22:42;;;;;;;;;;;;;;;;;;2075501;28;1914;-83
2021/08/26 03:23:44;;;;;;;;;;;;;;;;;;2067400;28;1342;-83
2021/08/26 03:24:45;;;;;;;;;;;;;;;;;;2067674;28;1249;-83
2021/08/26 03:25:47;;;;;;;;;;;;;;;;;;2067481;28;1296;-83
2021/08/26 03:26:48;;;;;;;;;;;;;;;;;;2072042;28;1304;-83
2021/08/26 03:27:50;;;;;;;;;;;;;;;;;;2083621;28;1368;-83
2021/08/26 03:28:52;;;;;;;;;;;;;;;;;;2076082;28;1361;-83
2021/08/26 03:29:55;;;;;;;;;;;;;;;;;;2075746;28;1300;-83
2021/08/26 03:30:56;;;;;;;;;;;;;;;;;;2084165;28;1337;-83
2021/08/26 03:31:57;;;;;;;;;;;;;;;;;;2071413;28;1184;-83
2021/08/26 03:32:59;;;;;;;;;;;;;;;;;;2067673;28;1281;-83
2021/08/26 03:34:00;;;;;;;;;;;;;;;;;;2075443;28;1580;-82
2021/08/26 03:35:02;;;;;;;;;;;;;;;;;;2067587;28;1317;-82
2021/08/26 03:36:03;;;;;;;;;;;;;;;;;;2066887;28;1514;-83
2021/08/26 03:37:04;;;;;;;;;;;;;;;;;;2071227;28;1311;-83
2021/08/26 03:38:05;;;;;;;;;;;;;;;;;;2074943;28;1616;-82
2021/08/26 03:39:08;;;;;;;;;;;;;;;;;;2082768;28;968;-83
2021/08/26 03:40:09;;;;;;;;;;;;;;;;;;2083663;28;1299;-86
2021/08/26 03:41:11;;;;;;;;;;;;;;;;;;2071828;28;2013;-83
2021/08/26 03:42:11;;;;;;;;;;;;;;;;;;2062063;28;1434;-83
2021/08/26 03:43:13;;;;;;;;;;;;;;;;;;2059259;28;1903;-83
2021/08/26 03:44:16;;;;;;;;;;;;;;;;;;2059089;28;1379;-83
2021/08/26 03:45:17;;;;;;;;;;;;;;;;;;2059578;28;1299;-83
2021/08/26 03:46:18;;;;;;;;;;;;;;;;;;2058966;28;1339;-82
2021/08/26 03:47:20;;;;;;;;;;;;;;;;;;2065110;28;1365;-82
2021/08/26 03:48:21;;;;;;;;;;;;;;;;;;2059479;28;1345;-82
2021/08/26 03:49:23;;;;;;;;;;;;;;;;;;2059195;28;1343;-82
2021/08/26 03:50:23;;;;;;;;;;;;;;;;;;2059591;28;1225;-82
2021/08/26 03:51:25;;;;;;;;;;;;;;;;;;2056171;28;1190;-82
2021/08/26 03:52:26;;;;;;;;;;;;;;;;;;2066980;28;1319;-82
2021/08/26 03:53:28;;;;;;;;;;;;;;;;;;2075449;28;1231;-82
2021/08/26 03:54:28;;;;;;;;;;;;;;;;;;2067223;28;1226;-82
2021/08/26 03:55:33;;;;;;;;;;;;;;;;;;2067065;28;1360;-82
2021/08/26 03:56:34;;;;;;;;;;;;;;;;;;2067518;28;1419;-83
2021/08/26 03:57:36;;;;;;;;;;;;;;;;;;2059172;28;1215;-82
2021/08/26 03:58:36;;;;;;;;;;;;;;;;;;2051149;28;1303;-83
2021/08/26 03:59:40;;;;;;;;;;;;;;;;;;2058888;28;1207;-83
2021/08/26 04:00:41;;;;;;;;;;;;;;;;;;2067577;28;927;-83
2021/08/26 04:01:42;;;;;;;;;;;;;;;;;;2066744;28;1378;-83
2021/08/26 04:02:44;;;;;;;;;;;;;;;;;;2066140;28;1914;-83
2021/08/26 04:03:45;;;;;;;;;;;;;;;;;;2074938;28;1394;-83
2021/08/26 04:04:47;;;;;;;;;;;;;;;;;;2067519;28;1427;-83
2021/08/26 04:05:47;;;;;;;;;;;;;;;;;;2066840;28;1381;-83
2021/08/26 04:06:49;;;;;;;;;;;;;;;;;;2067396;28;1240;-83
2021/08/26 04:07:50;;;;;;;;;;;;;;;;;;2066934;28;1208;-83
2021/08/26 04:08:52;;;;;;;;;;;;;;;;;;2075521;28;1260;-83
2021/08/26 04:09:52;;;;;;;;;;;;;;;;;;2066876;28;1195;-83
2021/08/26 04:10:54;;;;;;;;;;;;;;;;;;2066909;28;1443;-83
2021/08/26 04:11:56;;;;;;;;;;;;;;;;;;2064643;28;1238;-83
2021/08/26 04:12:57;;;;;;;;;;;;;;;;;;2083882;28;1474;-83
2021/08/26 04:13:59;;;;;;;;;;;;;;;;;;2083494;28;1833;-83
2021/08/26 04:15:01;;;;;;;;;;;;;;;;;;2075651;28;1327;-83
2021/08/26 04:16:02;;;;;;;;;;;;;;;;;;2075042;28;1549;-83
2021/08/26 04:17:03;;;;;;;;;;;;;;;;;;2066809;28;1250;-83
2021/08/26 04:18:05;;;;;;;;;;;;;;;;;;2067148;28;1332;-83
2021/08/26 04:19:06;;;;;;;;;;;;;;;;;;2067173;28;1688;-83
2021/08/26 04:20:08;;;;;;;;;;;;;;;;;;2067139;28;1395;-82
2021/08/26 04:21:09;;;;;;;;;;;;;;;;;;2071985;28;1757;-83
2021/08/26 04:22:11;;;;;;;;;;;;;;;;;;2075071;28;2034;-83
2021/08/26 04:23:12;;;;;;;;;;;;;;;;;;2066735;28;1918;-83
2021/08/26 04:24:13;;;;;;;;;;;;;;;;;;2067216;28;1296;-83
2021/08/26 04:25:15;;;;;;;;;;;;;;;;;;2075196;28;1239;-83
2021/08/26 04:26:17;;;;;;;;;;;;;;;;;;2078107;28;1247;-82
2021/08/26 04:27:18;;;;;;;;;;;;;;;;;;2076617;28;2140;-83
2021/08/26 04:28:20;;;;;;;;;;;;;;;;;;2074692;28;1379;-83
2021/08/26 04:29:21;;;;;;;;;;;;;;;;;;2066725;28;1711;-83
2021/08/26 04:30:26;;;;;;;;;;;;;;;;;;2067057;28;1288;-82
2021/08/26 04:31:26;;;;;;;;;;;;;;;;;;2067178;28;1925;-83
2021/08/26 04:32:28;;;;;;;;;;;;;;;;;;2067084;28;2023;-83
2021/08/26 04:33:29;;;;;;;;;;;;;;;;;;2074603;28;1344;-83
2021/08/26 04:34:31;;;;;;;;;;;;;;;;;;2083661;28;1313;-83
2021/08/26 04:35:32;;;;;;;;;;;;;;;;;;2075097;28;1311;-83
2021/08/26 04:36:34;;;;;;;;;;;;;;;;;;2075015;28;1399;-83
2021/08/26 04:37:34;;;;;;;;;;;;;;;;;;2074259;28;1272;-84
2021/08/26 04:38:36;;;;;;;;;;;;;;;;;;2074991;28;1321;-83
2021/08/26 04:39:37;;;;;;;;;;;;;;;;;;2075034;28;1460;-83
2021/08/26 04:40:39;;;;;;;;;;;;;;;;;;2075276;28;1290;-82
2021/08/26 04:41:40;;;;;;;;;;;;;;;;;;2075553;28;2095;-83
2021/08/26 04:42:41;;;;;;;;;;;;;;;;;;2066833;28;1332;-82
2021/08/26 04:43:43;;;;;;;;;;;;;;;;;;2066804;28;1257;-82
2021/08/26 04:44:44;;;;;;;;;;;;;;;;;;2067350;28;1331;-83
2021/08/26 04:45:47;;;;;;;;;;;;;;;;;;2066592;28;1802;-83
2021/08/26 04:46:48;;;;;;;;;;;;;;;;;;2083160;28;1268;-83
2021/08/26 04:47:50;;;;;;;;;;;;;;;;;;2074320;28;1214;-83
2021/08/26 04:48:51;;;;;;;;;;;;;;;;;;2066951;28;1303;-83
2021/08/26 04:49:52;;;;;;;;;;;;;;;;;;2083382;28;1263;-83
2021/08/26 04:50:53;;;;;;;;;;;;;;;;;;2074843;28;2034;-83
2021/08/26 04:51:55;;;;;;;;;;;;;;;;;;2069220;28;1277;-83
2021/08/26 04:52:56;;;;;;;;;;;;;;;;;;2066714;28;1365;-83
2021/08/26 04:53:58;;;;;;;;;;;;;;;;;;2066910;28;1348;-83
2021/08/26 04:54:59;;;;;;;;;;;;;;;;;;2067189;28;1428;-83
2021/08/26 04:56:00;;;;;;;;;;;;;;;;;;2074732;28;1276;-83
2021/08/26 04:57:01;;;;;;;;;;;;;;;;;;2082480;28;1340;-83
2021/08/26 04:58:03;;;;;;;;;;;;;;;;;;2074908;28;1288;-83
2021/08/26 04:59:05;;;;;;;;;;;;;;;;;;2074692;28;1252;-83
2021/08/26 05:00:07;;;;;;;;;;;;;;;;;;2082725;28;1372;-83
2021/08/26 05:01:10;;;;;;;;;;;;;;;;;;2066916;28;1289;-84
2021/08/26 05:02:11;;;;;;;;;;;;;;;;;;2077240;28;1166;-83
2021/08/26 05:03:14;;;;;;;;;;;;;;;;;;2083035;28;1919;-83
2021/08/26 05:04:20;;;;;;;;;;;;;;;;;;2079525;28;1355;-84
2021/08/26 05:05:22;;;;;;;;;;;;;;;;;;2075607;28;1339;-84
2021/08/26 05:06:23;;;;;;;;;;;;;;;;;;2074980;28;1272;-84
2021/08/26 05:07:25;;;;;;;;;;;;;;;;;;2076910;28;1244;-84
2021/08/26 05:08:25;;;;;;;;;;;;;;;;;;2074867;28;1318;-83
2021/08/26 05:09:27;;;;;;;;;;;;;;;;;;2069824;28;1320;-83
2021/08/26 05:10:28;;;;;;;;;;;;;;;;;;2075120;28;1301;-83
2021/08/26 05:11:30;;;;;;;;;;;;;;;;;;2075092;28;1463;-83
2021/08/26 05:12:31;;;;;;;;;;;;;;;;;;2079361;28;1793;-82
2021/08/26 05:13:33;;;;;;;;;;;;;;;;;;2069727;28;1422;-83
2021/08/26 05:14:33;;;;;;;;;;;;;;;;;;2082984;28;1406;-82
2021/08/26 05:15:37;;;;;;;;;;;;;;;;;;2076513;28;1493;-83
2021/08/26 05:16:39;;;;;;;;;;;;;;;;;;2077802;28;1841;-83
2021/08/26 05:17:41;;;;;;;;;;;;;;;;;;2094909;28;1327;-83
2021/08/26 05:18:43;;;;;;;;;;;;;;;;;;2087337;28;1347;-84
2021/08/26 05:19:44;;;;;;;;;;;;;;;;;;2079099;28;1544;-83
2021/08/26 05:20:46;;;;;;;;;;;;;;;;;;2078919;28;1660;-84
2021/08/26 05:21:47;;;;;;;;;;;;;;;;;;2077436;28;2157;-83
2021/08/26 05:22:49;;;;;;;;;;;;;;;;;;2079295;28;1364;-84
2021/08/26 05:23:50;;;;;;;;;;;;;;;;;;2079173;28;2238;-83
2021/08/26 05:24:52;;;;;;;;;;;;;;;;;;2084136;28;1549;-83
2021/08/26 05:25:52;;;;;;;;;;;;;;;;;;2074690;28;1667;-84
2021/08/26 05:26:54;;;;;;;;;;;;;;;;;;2066599;28;1586;-83
2021/08/26 05:27:55;;;;;;;;;;;;;;;;;;2068405;28;1378;-83
2021/08/26 05:28:57;;;;;;;;;;;;;;;;;;2074603;28;1229;-84
2021/08/26 05:30:00;;;;;;;;;;;;;;;;;;2066636;28;1217;-83
2021/08/26 05:31:01;;;;;;;;;;;;;;;;;;2058747;28;1263;-83
2021/08/26 05:32:05;;;;;;;;;;;;;;;;;;2066172;28;2011;-83
2021/08/26 05:33:06;;;;;;;;;;;;;;;;;;2075066;28;863;-83
2021/08/26 05:34:08;;;;;;;;;;;;;;;;;;2074832;28;1772;-82
2021/08/26 05:35:09;;;;;;;;;;;;;;;;;;2066221;28;1288;-83
2021/08/26 05:36:11;;;;;;;;;;;;;;;;;;2066591;28;1349;-82
2021/08/26 05:37:12;;;;;;;;;;;;;;;;;;2074103;28;1325;-82
2021/08/26 05:38:14;;;;;;;;;;;;;;;;;;2074409;28;1246;-82
2021/08/26 05:39:14;;;;;;;;;;;;;;;;;;2066374;28;1678;-83
2021/08/26 05:40:16;;;;;;;;;;;;;;;;;;2058310;28;1408;-82
2021/08/26 05:41:17;;;;;;;;;;;;;;;;;;2066251;28;1326;-82
2021/08/26 05:42:19;;;;;;;;;;;;;;;;;;2065935;28;2022;-83
2021/08/26 05:43:21;;;;;;;;;;;;;;;;;;2074733;28;1972;-83
2021/08/26 05:44:22;;;;;;;;;;;;;;;;;;2074835;28;1581;-82
2021/08/26 05:45:24;;;;;;;;;;;;;;;;;;2065588;28;1538;-83
2021/08/26 05:46:24;;;;;;;;;;;;;;;;;;2063982;28;2053;-83
2021/08/26 05:47:28;;;;;;;;;;;;;;;;;;2072663;28;1929;-83
2021/08/26 05:48:29;;;;;;;;;;;;;;;;;;2071692;28;1228;-82
2021/08/26 05:49:31;;;;;;;;;;;;;;;;;;2074550;28;1804;-82
2021/08/26 05:50:31;;;;;;;;;;;;;;;;;;2078260;28;1414;-82
2021/08/26 05:51:33;;;;;;;;;;;;;;;;;;2090645;28;1287;-82
2021/08/26 05:52:35;;;;;;;;;;;;;;;;;;2090544;28;1279;-82
2021/08/26 05:53:36;;;;;;;;;;;;;;;;;;2074446;28;1655;-83
2021/08/26 05:54:38;;;;;;;;;;;;;;;;;;2070603;28;1650;-82
2021/08/26 05:55:39;;;;;;;;;;;;;;;;;;2074156;28;1413;-82
2021/08/26 05:56:41;;;;;;;;;;;;;;;;;;2070434;28;1839;-81
2021/08/26 05:57:41;;;;;;;;;;;;;;;;;;2073108;28;1521;-80
2021/08/26 05:58:43;;;;;;;;;;;;;;;;;;2081994;28;1687;-82
2021/08/26 05:59:45;;;;;;;;;;;;;;;;;;2067939;28;1344;-81
2021/08/26 06:00:46;;;;;;;;;;;;;;;;;;2074182;28;1324;-85
2021/08/26 06:01:48;;;;;;;;;;;;;;;;;;2065376;28;2002;-84
2021/08/26 06:02:51;;;;;;;;;;;;;;;;;;2073839;28;749;-89
2021/08/26 06:03:52;;;;;;;;;;;;;;;;;;2074316;28;1906;-90
2021/08/26 06:04:54;;;;;;;;;;;;;;;;;;2066670;28;1232;-89
2021/08/26 06:05:56;;;;;;;;;;;;;;;;;;2065808;28;1855;-89
2021/08/26 06:06:58;;;;;;;;;;;;;;;;;;2066786;28;1455;-90
2021/08/26 06:08:00;;;;;;;;;;;;;;;;;;2065990;28;1252;-83
2021/08/26 06:09:00;;;;;;;;;;;;;;;;;;2066421;28;1326;-82
2021/08/26 06:10:02;;;;;;;;;;;;;;;;;;2073853;28;1582;-82
2021/08/26 06:11:03;;;;;;;;;;;;;;;;;;2073904;28;1917;-82
2021/08/26 06:12:05;;;;;;;;;;;;;;;;;;2073857;28;1910;-81
2021/08/26 06:13:06;;;;;;;;;;;;;;;;;;2073745;28;757;-82
2021/08/26 06:14:07;;;;;;;;;;;;;;;;;;2065281;28;1675;-82
2021/08/26 06:15:09;;;;;;;;;;;;;;;;;;2056901;28;1567;-82
2021/08/26 06:16:11;;;;;;;;;;;;;;;;;;2057844;28;1882;-83
2021/08/26 06:17:12;;;;;;;;;;;;;;;;;;2056983;28;1635;-82
2021/08/26 06:18:15;;;;;;;;;;;;;;;;;;2057676;28;1709;-82
2021/08/26 06:19:16;;;;;;;;;;;;;;;;;;2071435;28;1402;-83
2021/08/26 06:20:18;;;;;;;;;;;;;;;;;;2065560;28;1201;-82
2021/08/26 06:21:19;;;;;;;;;;;;;;;;;;2064887;28;1904;-82
2021/08/26 06:22:20;;;;;;;;;;;;;;;;;;2057624;28;1948;-82
2021/08/26 06:23:22;;;;;;;;;;;;;;;;;;2056199;28;1648;-82
2021/08/26 06:24:23;;;;;;;;;;;;;;;;;;2057660;28;1976;-82
2021/08/26 06:25:24;;;;;;;;;;;;;;;;;;2057419;28;1541;-82
2021/08/26 06:26:26;;;;;;;;;;;;;;;;;;2062559;28;2084;-82
2021/08/26 06:27:26;;;;;;;;;;;;;;;;;;2090619;28;1907;-82
2021/08/26 06:28:28;;;;;;;;;;;;;;;;;;2083867;28;1630;-82
2021/08/26 06:29:29;;;;;;;;;;;;;;;;;;2083930;28;1260;-82
2021/08/26 06:30:31;;;;;;;;;;;;;;;;;;2083691;28;1772;-82
2021/08/26 06:31:31;;;;;;;;;;;;;;;;;;2063677;28;2048;-82
2021/08/26 06:32:33;;;;;;;;;;;;;;;;;;2068093;28;1553;-82
2021/08/26 06:33:36;;;;;;;;;;;;;;;;;;2067860;28;1564;-81
2021/08/26 06:34:38;;;;;;;;;;;;;;;;;;2067808;28;1273;-82
2021/08/26 06:35:39;;;;;;;;;;;;;;;;;;2075657;28;1433;-82
2021/08/26 06:36:40;;;;;;;;;;;;;;;;;;2073799;28;2239;-82
2021/08/26 06:37:41;;;;;;;;;;;;;;;;;;2067242;28;1867;-81
2021/08/26 06:38:43;;;;;;;;;;;;;;;;;;2067428;28;1792;-82
2021/08/26 06:39:43;;;;;;;;;;;;;;;;;;2059783;28;1232;-82
2021/08/26 06:40:45;;;;;;;;;;;;;;;;;;2067744;28;1690;-82
2021/08/26 06:41:46;;;;;;;;;;;;;;;;;;2068472;28;1833;-81
2021/08/26 06:42:47;;;;;;;;;;;;;;;;;;2059651;28;1657;-82
2021/08/26 06:43:49;;;;;;;;;;;;;;;;;;2067689;28;1918;-82
2021/08/26 06:44:50;;;;;;;;;;;;;;;;;;2067427;28;1276;-81
2021/08/26 06:45:51;;;;;;;;;;;;;;;;;;2067675;28;1547;-82
2021/08/26 06:46:52;;;;;;;;;;;;;;;;;;2076434;28;1942;-82
2021/08/26 06:47:54;;;;;;;;;;;;;;;;;;2059530;28;1724;-82
2021/08/26 06:48:56;;;;;;;;;;;;;;;;;;2059736;28;1241;-81
2021/08/26 06:49:58;;;;;;;;;;;;;;;;;;2067464;28;1504;-82
2021/08/26 06:50:58;;;;;;;;;;;;;;;;;;2075710;28;1903;-82
2021/08/26 06:52:00;;;;;;;;;;;;;;;;;;2070388;28;2057;-82
2021/08/26 06:53:01;;;;;;;;;;;;;;;;;;2067927;28;1561;-81
2021/08/26 06:54:03;;;;;;;;;;;;;;;;;;2059152;28;1355;-82
2021/08/26 06:55:04;;;;;;;;;;;;;;;;;;2059592;28;1367;-82
2021/08/26 06:56:06;;;;;;;;;;;;;;;;;;2067663;28;1391;-82
2021/08/26 06:57:07;;;;;;;;;;;;;;;;;;2067889;28;1941;-82
2021/08/26 06:58:08;;;;;;;;;;;;;;;;;;2067705;28;1212;-82
2021/08/26 06:59:09;;;;;;;;;;;;;;;;;;2075202;28;1643;-82
2021/08/26 07:00:11;;;;;;;;;;;;;;;;;;2067617;28;1311;-82
2021/08/26 07:01:12;;;;;;;;;;;;;;;;;;2059779;28;1533;-82
2021/08/26 07:02:14;;;;;;;;;;;;;;;;;;2059630;28;2016;-82
2021/08/26 07:03:15;;;;;;;;;;;;;;;;;;2059332;28;1212;-82
2021/08/26 07:04:18;;;;;;;;;;;;;;;;;;2067289;28;1914;-82
2021/08/26 07:05:18;;;;;;;;;;;;;;;;;;2067852;28;1023;-81
2021/08/26 07:06:20;;;;;;;;;;;;;;;;;;2067577;28;1896;-82
2021/08/26 07:07:21;;;;;;;;;;;;;;;;;;2068043;28;1969;-82
2021/08/26 07:08:23;;;;;;;;;;;;;;;;;;2067216;28;1695;-82
2021/08/26 07:09:24;;;;;;;;;;;;;;;;;;2059390;28;1794;-82
2021/08/26 07:10:25;;;;;;;;;;;;;;;;;;2067219;28;1275;-82
2021/08/26 07:11:26;;;;;;;;;;;;;;;;;;2067414;28;1523;-82
2021/08/26 07:12:30;;;;;;;;;;;;;;;;;;2059534;28;1840;-82